EZY92N EDDH-EGKK
Flight info
| Callsign | EZY92N |
|---|---|
| Flight time | 1h 19m |
| Altitude | 38000 |
| Route | WSN5G WSN N125 ONTAZ DCT GALSO Q63 ARREK Y4 TEBRA |
| Aircraft | A20N/M-SDE2E3FGHIRWXY/LB1 |
Departure
| Time | 2026-05-06 16:55 |
|---|---|
| Airport | Hamburg Helmut Schmidt Airport (EDDH) |
Arrival
| Time | 2026-05-06 18:14 |
|---|---|
| Airport | London Gatwick Airport (EGKK) |
| Time | Latitude | Longitude | Altitude | Speed | Heading |
|---|---|---|---|---|---|
| 2026-05-06 16:35 | 53.62923 | 10.00298 | 49 ft | 0 kts | 103° |
| 2026-05-06 16:44 | 53.62925 | 10.00286 | 49 ft | 1 kts | 103° |
| 2026-05-06 16:44 | 53.62927 | 10.00268 | 49 ft | 2 kts | 103° |
| 2026-05-06 16:44 | 53.62939 | 10.00202 | 44 ft | 7 kts | 124° |
| 2026-05-06 16:45 | 53.62970 | 10.00145 | 46 ft | 7 kts | 138° |
| 2026-05-06 16:45 | 53.63012 | 10.00124 | 48 ft | 7 kts | 198° |
| 2026-05-06 16:45 | 53.63020 | 10.00130 | 47 ft | 0 kts | 214° |
| 2026-05-06 16:51 | 53.63012 | 10.00120 | 44 ft | 3 kts | 213° |
| 2026-05-06 16:51 | 53.62989 | 10.00095 | 46 ft | 5 kts | 213° |
| 2026-05-06 16:51 | 53.62952 | 10.00055 | 45 ft | 7 kts | 214° |
| 2026-05-06 16:51 | 53.62919 | 9.99982 | 49 ft | 6 kts | 242° |
| 2026-05-06 16:52 | 53.62904 | 9.99933 | 49 ft | 2 kts | 243° |
| 2026-05-06 16:52 | 53.62895 | 9.99905 | 49 ft | 3 kts | 243° |
| 2026-05-06 16:52 | 53.62867 | 9.99816 | 50 ft | 16 kts | 243° |
| 2026-05-06 16:52 | 53.62875 | 9.99648 | 49 ft | 7 kts | 351° |
| 2026-05-06 16:53 | 53.62904 | 9.99667 | 50 ft | 3 kts | 24° |
| 2026-05-06 16:53 | 53.62928 | 9.99679 | 50 ft | 9 kts | 7° |
| 2026-05-06 16:53 | 53.62960 | 9.99666 | 47 ft | 0 kts | 334° |
| 2026-05-06 16:54 | 53.62996 | 9.99635 | 49 ft | 25 kts | 333° |
| 2026-05-06 16:54 | 53.63200 | 9.99462 | 44 ft | 73 kts | 334° |
| 2026-05-06 16:54 | 53.63853 | 9.98896 | 43 ft | 138 kts | 332° |
| 2026-05-06 16:55 | 53.64827 | 9.98044 | 235 ft | 168 kts | 335° |
| 2026-05-06 16:55 | 53.65900 | 9.97141 | 684 ft | 177 kts | 339° |
| 2026-05-06 16:55 | 53.67046 | 9.96247 | 1227 ft | 185 kts | 340° |
| 2026-05-06 16:55 | 53.68263 | 9.95354 | 1716 ft | 196 kts | 342° |
| 2026-05-06 16:56 | 53.69636 | 9.94370 | 1976 ft | 234 kts | 339° |
| 2026-05-06 16:56 | 53.71141 | 9.93036 | 2239 ft | 251 kts | 334° |
| 2026-05-06 16:56 | 53.72480 | 9.91079 | 2471 ft | 262 kts | 309° |
| 2026-05-06 16:56 | 53.73143 | 9.88176 | 2705 ft | 272 kts | 279° |
| 2026-05-06 16:57 | 53.72963 | 9.84968 | 2940 ft | 279 kts | 256° |
| 2026-05-06 16:57 | 53.72226 | 9.81860 | 3320 ft | 292 kts | 241° |
| 2026-05-06 16:57 | 53.71179 | 9.78961 | 4401 ft | 290 kts | 237° |
| 2026-05-06 16:57 | 53.70213 | 9.76118 | 5728 ft | 281 kts | 245° |
| 2026-05-06 16:58 | 53.69463 | 9.73185 | 6735 ft | 281 kts | 248° |
| 2026-05-06 16:58 | 53.68739 | 9.70114 | 7665 ft | 285 kts | 249° |
| 2026-05-06 16:58 | 53.68017 | 9.66980 | 8609 ft | 287 kts | 249° |
| 2026-05-06 16:58 | 53.67294 | 9.63824 | 9407 ft | 290 kts | 249° |
| 2026-05-06 16:59 | 53.66565 | 9.60610 | 9802 ft | 295 kts | 248° |
| 2026-05-06 16:59 | 53.65674 | 9.57495 | 9881 ft | 296 kts | 239° |
| 2026-05-06 16:59 | 53.64571 | 9.54455 | 9899 ft | 317 kts | 237° |
| 2026-05-06 16:59 | 53.63319 | 9.51271 | 9893 ft | 332 kts | 234° |
| 2026-05-06 17:00 | 53.61980 | 9.48075 | 9885 ft | 334 kts | 234° |
| 2026-05-06 17:00 | 53.60669 | 9.44934 | 9873 ft | 319 kts | 234° |
| 2026-05-06 17:00 | 53.59435 | 9.41951 | 9874 ft | 303 kts | 232° |
| 2026-05-06 17:00 | 53.58251 | 9.39065 | 9883 ft | 297 kts | 234° |
| 2026-05-06 17:01 | 53.57095 | 9.36158 | 9893 ft | 305 kts | 235° |
| 2026-05-06 17:01 | 53.55893 | 9.33211 | 9886 ft | 328 kts | 235° |
| 2026-05-06 17:01 | 53.54598 | 9.30128 | 9884 ft | 335 kts | 235° |
| 2026-05-06 17:01 | 53.53242 | 9.26917 | 9881 ft | 337 kts | 234° |
| 2026-05-06 17:02 | 53.51885 | 9.23708 | 9878 ft | 334 kts | 234° |
| 2026-05-06 17:02 | 53.50579 | 9.20619 | 9871 ft | 314 kts | 234° |
| 2026-05-06 17:02 | 53.49345 | 9.17704 | 9893 ft | 298 kts | 234° |
| 2026-05-06 17:02 | 53.48153 | 9.14892 | 10175 ft | 299 kts | 234° |
| 2026-05-06 17:03 | 53.46914 | 9.11932 | 10504 ft | 322 kts | 237° |
| 2026-05-06 17:03 | 53.45787 | 9.08579 | 11123 ft | 335 kts | 243° |
| 2026-05-06 17:03 | 53.44771 | 9.05014 | 12014 ft | 340 kts | 244° |
| 2026-05-06 17:03 | 53.43775 | 9.01385 | 12906 ft | 346 kts | 244° |
| 2026-05-06 17:04 | 53.42791 | 8.97720 | 13794 ft | 351 kts | 244° |
| 2026-05-06 17:04 | 53.41798 | 8.93980 | 14655 ft | 353 kts | 244° |
| 2026-05-06 17:04 | 53.40800 | 8.90223 | 15571 ft | 353 kts | 245° |
| 2026-05-06 17:04 | 53.39789 | 8.86463 | 16493 ft | 354 kts | 245° |
| 2026-05-06 17:05 | 53.38779 | 8.82686 | 17349 ft | 356 kts | 244° |
| 2026-05-06 17:05 | 53.37772 | 8.78894 | 18199 ft | 358 kts | 245° |
| 2026-05-06 17:05 | 53.36746 | 8.75073 | 18807 ft | 364 kts | 245° |
| 2026-05-06 17:05 | 53.35659 | 8.71183 | 19372 ft | 370 kts | 245° |
| 2026-05-06 17:06 | 53.34552 | 8.67269 | 20071 ft | 373 kts | 244° |
| 2026-05-06 17:06 | 53.33441 | 8.63349 | 20764 ft | 376 kts | 244° |
| 2026-05-06 17:06 | 53.32313 | 8.59374 | 21415 ft | 379 kts | 244° |
| 2026-05-06 17:06 | 53.31175 | 8.55368 | 22059 ft | 383 kts | 244° |
| 2026-05-06 17:07 | 53.30027 | 8.51334 | 22706 ft | 386 kts | 244° |
| 2026-05-06 17:07 | 53.28867 | 8.47268 | 23323 ft | 389 kts | 244° |
| 2026-05-06 17:07 | 53.27669 | 8.43166 | 23831 ft | 393 kts | 240° |
| 2026-05-06 17:07 | 53.26047 | 8.39543 | 24318 ft | 396 kts | 228° |
| 2026-05-06 17:08 | 53.24115 | 8.36244 | 24812 ft | 399 kts | 224° |
| 2026-05-06 17:08 | 53.22077 | 8.33085 | 25292 ft | 402 kts | 222° |
| 2026-05-06 17:08 | 53.19982 | 8.29953 | 25768 ft | 404 kts | 221° |
| 2026-05-06 17:08 | 53.17870 | 8.26842 | 26237 ft | 407 kts | 221° |
| 2026-05-06 17:09 | 53.15790 | 8.23627 | 26687 ft | 409 kts | 226° |
| 2026-05-06 17:09 | 53.13950 | 8.19985 | 27127 ft | 412 kts | 233° |
| 2026-05-06 17:09 | 53.12324 | 8.16028 | 27581 ft | 414 kts | 236° |
| 2026-05-06 17:09 | 53.10765 | 8.11997 | 28056 ft | 415 kts | 237° |
| 2026-05-06 17:10 | 53.09257 | 8.07861 | 28466 ft | 418 kts | 239° |
| 2026-05-06 17:10 | 53.07838 | 8.03617 | 28852 ft | 422 kts | 243° |
| 2026-05-06 17:10 | 53.06700 | 7.99172 | 29227 ft | 425 kts | 249° |
| 2026-05-06 17:10 | 53.05714 | 7.94519 | 29613 ft | 428 kts | 249° |
| 2026-05-06 17:11 | 53.04707 | 7.89782 | 29959 ft | 431 kts | 249° |
| 2026-05-06 17:11 | 53.03714 | 7.85123 | 30203 ft | 435 kts | 249° |
| 2026-05-06 17:11 | 53.02705 | 7.80393 | 30741 ft | 431 kts | 249° |
| 2026-05-06 17:11 | 53.01706 | 7.75730 | 31341 ft | 426 kts | 249° |
| 2026-05-06 17:12 | 53.00695 | 7.71138 | 31974 ft | 419 kts | 248° |
| 2026-05-06 17:12 | 52.99622 | 7.66674 | 32593 ft | 413 kts | 246° |
| 2026-05-06 17:12 | 52.98513 | 7.62278 | 33244 ft | 406 kts | 246° |
| 2026-05-06 17:12 | 52.97446 | 7.58048 | 33896 ft | 398 kts | 246° |
| 2026-05-06 17:13 | 52.96389 | 7.53844 | 34457 ft | 389 kts | 246° |
| 2026-05-06 17:13 | 52.95359 | 7.49745 | 35022 ft | 380 kts | 246° |
| 2026-05-06 17:13 | 52.94353 | 7.45748 | 35554 ft | 372 kts | 246° |
| 2026-05-06 17:13 | 52.93355 | 7.41790 | 35733 ft | 374 kts | 246° |
| 2026-05-06 17:14 | 52.92348 | 7.37799 | 35823 ft | 377 kts | 246° |
| 2026-05-06 17:14 | 52.90301 | 7.29709 | 35992 ft | 384 kts | 246° |
| 2026-05-06 17:15 | 52.88209 | 7.21470 | 36157 ft | 391 kts | 246° |
| 2026-05-06 17:15 | 52.85945 | 7.13243 | 36337 ft | 398 kts | 244° |
| 2026-05-06 17:16 | 52.83584 | 7.04862 | 36511 ft | 406 kts | 244° |
| 2026-05-06 17:16 | 52.81000 | 6.96487 | 36646 ft | 412 kts | 231° |
| 2026-05-06 17:17 | 52.77735 | 6.88695 | 36771 ft | 419 kts | 246° |
| 2026-05-06 17:17 | 52.75584 | 6.79660 | 36958 ft | 426 kts | 248° |
| 2026-05-06 17:17 | 52.74524 | 6.75097 | 37111 ft | 427 kts | 248° |
| 2026-05-06 17:18 | 52.73458 | 6.70511 | 37323 ft | 427 kts | 248° |
| 2026-05-06 17:18 | 52.72428 | 6.66095 | 37537 ft | 427 kts | 248° |
| 2026-05-06 17:18 | 52.71360 | 6.61523 | 37770 ft | 427 kts | 248° |
| 2026-05-06 17:18 | 52.70303 | 6.57008 | 37902 ft | 429 kts | 248° |
| 2026-05-06 17:19 | 52.69228 | 6.52422 | 37907 ft | 429 kts | 248° |
| 2026-05-06 17:19 | 52.67070 | 6.43257 | 37894 ft | 428 kts | 248° |
| 2026-05-06 17:20 | 52.64913 | 6.34119 | 37903 ft | 428 kts | 248° |
| 2026-05-06 17:20 | 52.62751 | 6.24984 | 37903 ft | 428 kts | 248° |
| 2026-05-06 17:21 | 52.60586 | 6.15858 | 37904 ft | 428 kts | 248° |
| 2026-05-06 17:21 | 52.58430 | 6.06789 | 37900 ft | 428 kts | 248° |
| 2026-05-06 17:22 | 52.56256 | 5.97666 | 37910 ft | 429 kts | 248° |
| 2026-05-06 17:22 | 52.54068 | 5.88547 | 37913 ft | 429 kts | 248° |
| 2026-05-06 17:23 | 52.51847 | 5.79447 | 37907 ft | 429 kts | 246° |
| 2026-05-06 17:23 | 52.49381 | 5.70533 | 37911 ft | 429 kts | 244° |
| 2026-05-06 17:24 | 52.46845 | 5.61836 | 37910 ft | 429 kts | 244° |
| 2026-05-06 17:24 | 52.44243 | 5.53026 | 37909 ft | 429 kts | 244° |
| 2026-05-06 17:25 | 52.41615 | 5.44248 | 37916 ft | 429 kts | 244° |
| 2026-05-06 17:25 | 52.39104 | 5.35443 | 37908 ft | 429 kts | 244° |
| 2026-05-06 17:26 | 52.36600 | 5.26664 | 37901 ft | 412 kts | 244° |
| 2026-05-06 17:26 | 52.35423 | 5.22571 | 37906 ft | 401 kts | 244° |
| 2026-05-06 17:26 | 52.34239 | 5.18473 | 37912 ft | 397 kts | 244° |
| 2026-05-06 17:27 | 52.31881 | 5.10362 | 37915 ft | 397 kts | 244° |
| 2026-05-06 17:27 | 52.29497 | 5.02201 | 37910 ft | 398 kts | 244° |
| 2026-05-06 17:28 | 52.27111 | 4.94056 | 37921 ft | 398 kts | 244° |
| 2026-05-06 17:28 | 52.24716 | 4.85909 | 37911 ft | 398 kts | 244° |
| 2026-05-06 17:29 | 52.22322 | 4.77789 | 37913 ft | 397 kts | 244° |
| 2026-05-06 17:29 | 52.19919 | 4.69664 | 37911 ft | 397 kts | 244° |
| 2026-05-06 17:30 | 52.17509 | 4.61546 | 37914 ft | 398 kts | 244° |
| 2026-05-06 17:30 | 52.15068 | 4.53351 | 37919 ft | 407 kts | 244° |
| 2026-05-06 17:31 | 52.12562 | 4.44970 | 37915 ft | 416 kts | 244° |
| 2026-05-06 17:31 | 52.09993 | 4.36406 | 37917 ft | 426 kts | 244° |
| 2026-05-06 17:32 | 52.07361 | 4.27663 | 37913 ft | 433 kts | 244° |
| 2026-05-06 17:32 | 52.04720 | 4.18922 | 37912 ft | 433 kts | 244° |
| 2026-05-06 17:33 | 52.02062 | 4.10159 | 37908 ft | 432 kts | 244° |
| 2026-05-06 17:33 | 51.99399 | 4.01407 | 37912 ft | 432 kts | 243° |
| 2026-05-06 17:34 | 51.96730 | 3.92670 | 37921 ft | 433 kts | 243° |
| 2026-05-06 17:34 | 51.94050 | 3.83927 | 37905 ft | 432 kts | 243° |
| 2026-05-06 17:35 | 51.91372 | 3.75223 | 37904 ft | 431 kts | 243° |
| 2026-05-06 17:35 | 51.88693 | 3.66548 | 37911 ft | 430 kts | 243° |
| 2026-05-06 17:36 | 51.84676 | 3.53594 | 37910 ft | 430 kts | 243° |
| 2026-05-06 17:36 | 51.81979 | 3.44939 | 37922 ft | 431 kts | 243° |
| 2026-05-06 17:37 | 51.79280 | 3.36305 | 37926 ft | 431 kts | 243° |
| 2026-05-06 17:37 | 51.76569 | 3.27662 | 37802 ft | 429 kts | 243° |
| 2026-05-06 17:38 | 51.75224 | 3.23388 | 37389 ft | 424 kts | 243° |
| 2026-05-06 17:38 | 51.73906 | 3.19186 | 37140 ft | 415 kts | 245° |
| 2026-05-06 17:38 | 51.72943 | 3.14850 | 36924 ft | 406 kts | 255° |
| 2026-05-06 17:38 | 51.72378 | 3.10446 | 36675 ft | 398 kts | 261° |
| 2026-05-06 17:39 | 51.72011 | 3.06072 | 36448 ft | 390 kts | 263° |
| 2026-05-06 17:39 | 51.71726 | 3.01816 | 36167 ft | 383 kts | 264° |
| 2026-05-06 17:39 | 51.71451 | 2.97592 | 35962 ft | 375 kts | 263° |
| 2026-05-06 17:39 | 51.71159 | 2.93425 | 35544 ft | 372 kts | 263° |
| 2026-05-06 17:40 | 51.70843 | 2.89298 | 35135 ft | 370 kts | 263° |
| 2026-05-06 17:40 | 51.70620 | 2.86565 | 34832 ft | 370 kts | 262° |
| 2026-05-06 17:40 | 51.70272 | 2.82481 | 34544 ft | 364 kts | 262° |
| 2026-05-06 17:40 | 51.69805 | 2.77189 | 34196 ft | 357 kts | 262° |
| 2026-05-06 17:41 | 51.69452 | 2.73248 | 33836 ft | 353 kts | 262° |
| 2026-05-06 17:41 | 51.69213 | 2.70595 | 33553 ft | 352 kts | 262° |
| 2026-05-06 17:41 | 51.68863 | 2.66715 | 33202 ft | 347 kts | 262° |
| 2026-05-06 17:41 | 51.68518 | 2.62888 | 32856 ft | 343 kts | 262° |
| 2026-05-06 17:42 | 51.68180 | 2.59119 | 32593 ft | 337 kts | 262° |
| 2026-05-06 17:42 | 51.67849 | 2.55447 | 32143 ft | 336 kts | 262° |
| 2026-05-06 17:42 | 51.67514 | 2.51730 | 31773 ft | 333 kts | 261° |
| 2026-05-06 17:42 | 51.67179 | 2.48041 | 31416 ft | 330 kts | 261° |
| 2026-05-06 17:43 | 51.66848 | 2.44399 | 31115 ft | 326 kts | 261° |
| 2026-05-06 17:43 | 51.66519 | 2.40797 | 30768 ft | 323 kts | 261° |
| 2026-05-06 17:43 | 51.66192 | 2.37239 | 30452 ft | 319 kts | 261° |
| 2026-05-06 17:43 | 51.65867 | 2.33717 | 30111 ft | 317 kts | 261° |
| 2026-05-06 17:44 | 51.65544 | 2.30221 | 29749 ft | 314 kts | 261° |
| 2026-05-06 17:44 | 51.65222 | 2.26747 | 29369 ft | 311 kts | 261° |
| 2026-05-06 17:44 | 51.64903 | 2.23321 | 29014 ft | 308 kts | 261° |
| 2026-05-06 17:44 | 51.64585 | 2.19917 | 28663 ft | 305 kts | 261° |
| 2026-05-06 17:45 | 51.64270 | 2.16554 | 28301 ft | 302 kts | 261° |
| 2026-05-06 17:45 | 51.63941 | 2.13225 | 27914 ft | 301 kts | 257° |
| 2026-05-06 17:45 | 51.63360 | 2.10011 | 27558 ft | 298 kts | 250° |
| 2026-05-06 17:45 | 51.62607 | 2.06954 | 27216 ft | 296 kts | 248° |
| 2026-05-06 17:46 | 51.61805 | 2.03922 | 26875 ft | 294 kts | 247° |
| 2026-05-06 17:46 | 51.60984 | 2.00883 | 26436 ft | 295 kts | 247° |
| 2026-05-06 17:46 | 51.60160 | 1.97857 | 26160 ft | 298 kts | 246° |
| 2026-05-06 17:46 | 51.59320 | 1.94781 | 25704 ft | 302 kts | 246° |
| 2026-05-06 17:47 | 51.58472 | 1.91684 | 25229 ft | 304 kts | 247° |
| 2026-05-06 17:47 | 51.57611 | 1.88548 | 24770 ft | 307 kts | 247° |
| 2026-05-06 17:47 | 51.56746 | 1.85397 | 24299 ft | 310 kts | 247° |
| 2026-05-06 17:47 | 51.55872 | 1.82221 | 23744 ft | 311 kts | 247° |
| 2026-05-06 17:48 | 51.54993 | 1.79032 | 23119 ft | 313 kts | 247° |
| 2026-05-06 17:48 | 51.54109 | 1.75830 | 22463 ft | 314 kts | 247° |
| 2026-05-06 17:48 | 51.53222 | 1.72620 | 21823 ft | 314 kts | 247° |
| 2026-05-06 17:48 | 51.52335 | 1.69413 | 21196 ft | 315 kts | 247° |
| 2026-05-06 17:49 | 51.51476 | 1.66313 | 20599 ft | 315 kts | 247° |
| 2026-05-06 17:49 | 51.50582 | 1.63091 | 19997 ft | 316 kts | 247° |
| 2026-05-06 17:49 | 51.49689 | 1.59880 | 19402 ft | 315 kts | 247° |
| 2026-05-06 17:49 | 51.48797 | 1.56676 | 18822 ft | 314 kts | 247° |
| 2026-05-06 17:50 | 51.47908 | 1.53483 | 18255 ft | 313 kts | 247° |
| 2026-05-06 17:50 | 51.47014 | 1.50312 | 17609 ft | 312 kts | 244° |
| 2026-05-06 17:50 | 51.45951 | 1.47339 | 16976 ft | 311 kts | 239° |
| 2026-05-06 17:50 | 51.44800 | 1.44418 | 16371 ft | 309 kts | 238° |
| 2026-05-06 17:51 | 51.43640 | 1.41560 | 15904 ft | 303 kts | 238° |
| 2026-05-06 17:51 | 51.42491 | 1.38768 | 15449 ft | 297 kts | 238° |
| 2026-05-06 17:51 | 51.41356 | 1.36028 | 15000 ft | 293 kts | 238° |
| 2026-05-06 17:51 | 51.40226 | 1.33310 | 14551 ft | 292 kts | 238° |
| 2026-05-06 17:52 | 51.39103 | 1.30616 | 14148 ft | 291 kts | 238° |
| 2026-05-06 17:52 | 51.37979 | 1.27924 | 13989 ft | 290 kts | 238° |
| 2026-05-06 17:52 | 51.36858 | 1.25244 | 13968 ft | 289 kts | 238° |
| 2026-05-06 17:52 | 51.35738 | 1.22571 | 13969 ft | 289 kts | 238° |
| 2026-05-06 17:53 | 51.34617 | 1.19899 | 13966 ft | 289 kts | 238° |
| 2026-05-06 17:53 | 51.33495 | 1.17225 | 13959 ft | 289 kts | 238° |
| 2026-05-06 17:53 | 51.32374 | 1.14555 | 13966 ft | 289 kts | 238° |
| 2026-05-06 17:53 | 51.31264 | 1.11918 | 13967 ft | 290 kts | 238° |
| 2026-05-06 17:54 | 51.30137 | 1.09241 | 13966 ft | 290 kts | 238° |
| 2026-05-06 17:54 | 51.29012 | 1.06572 | 13967 ft | 290 kts | 238° |
| 2026-05-06 17:54 | 51.27882 | 1.03897 | 13943 ft | 290 kts | 238° |
| 2026-05-06 17:54 | 51.26770 | 1.01266 | 13865 ft | 281 kts | 238° |
| 2026-05-06 17:55 | 51.25693 | 0.98726 | 13729 ft | 271 kts | 238° |
| 2026-05-06 17:55 | 51.24651 | 0.96265 | 13453 ft | 267 kts | 238° |
| 2026-05-06 17:55 | 51.23591 | 0.93762 | 13002 ft | 279 kts | 238° |
| 2026-05-06 17:55 | 51.22489 | 0.91160 | 12562 ft | 285 kts | 237° |
| 2026-05-06 17:56 | 51.21373 | 0.88532 | 12130 ft | 286 kts | 238° |
| 2026-05-06 17:56 | 51.20256 | 0.85906 | 11697 ft | 286 kts | 238° |
| 2026-05-06 17:56 | 51.19138 | 0.83279 | 11268 ft | 287 kts | 238° |
| 2026-05-06 17:56 | 51.18016 | 0.80646 | 10846 ft | 287 kts | 238° |
| 2026-05-06 17:57 | 51.16896 | 0.78020 | 10431 ft | 287 kts | 237° |
| 2026-05-06 17:57 | 51.15774 | 0.75394 | 10023 ft | 287 kts | 237° |
| 2026-05-06 17:57 | 51.14653 | 0.72769 | 9583 ft | 286 kts | 238° |
| 2026-05-06 17:57 | 51.13533 | 0.70151 | 9150 ft | 285 kts | 237° |
| 2026-05-06 17:58 | 51.12381 | 0.67454 | 9008 ft | 313 kts | 237° |
| 2026-05-06 17:58 | 51.11164 | 0.64611 | 8857 ft | 305 kts | 237° |
| 2026-05-06 17:58 | 51.09971 | 0.61836 | 8609 ft | 315 kts | 237° |
| 2026-05-06 17:58 | 51.08706 | 0.58889 | 8342 ft | 317 kts | 238° |
| 2026-05-06 17:59 | 51.07498 | 0.56086 | 8096 ft | 298 kts | 237° |
| 2026-05-06 17:59 | 51.06365 | 0.53462 | 7990 ft | 281 kts | 237° |
| 2026-05-06 17:59 | 51.05202 | 0.50761 | 7993 ft | 300 kts | 237° |
| 2026-05-06 17:59 | 51.04087 | 0.48179 | 7975 ft | 275 kts | 238° |
| 2026-05-06 18:00 | 51.03053 | 0.45790 | 7970 ft | 251 kts | 238° |
| 2026-05-06 18:00 | 51.02129 | 0.43511 | 7975 ft | 242 kts | 248° |
| 2026-05-06 18:00 | 51.01691 | 0.40944 | 7991 ft | 241 kts | 263° |
| 2026-05-06 18:00 | 51.01487 | 0.38289 | 7990 ft | 242 kts | 266° |
| 2026-05-06 18:01 | 51.01329 | 0.35619 | 7993 ft | 243 kts | 266° |
| 2026-05-06 18:01 | 51.01180 | 0.32942 | 7988 ft | 244 kts | 266° |
| 2026-05-06 18:01 | 51.01019 | 0.30270 | 7983 ft | 242 kts | 266° |
| 2026-05-06 18:01 | 51.00854 | 0.27605 | 7984 ft | 242 kts | 266° |
| 2026-05-06 18:02 | 51.00693 | 0.24966 | 7985 ft | 243 kts | 266° |
| 2026-05-06 18:02 | 51.00520 | 0.22309 | 7982 ft | 242 kts | 266° |
| 2026-05-06 18:02 | 51.00350 | 0.19652 | 7937 ft | 242 kts | 266° |
| 2026-05-06 18:02 | 51.00186 | 0.16989 | 7660 ft | 243 kts | 265° |
| 2026-05-06 18:03 | 51.00026 | 0.14328 | 7380 ft | 241 kts | 266° |
| 2026-05-06 18:03 | 50.99874 | 0.11683 | 7100 ft | 240 kts | 266° |
| 2026-05-06 18:03 | 50.99733 | 0.09053 | 6986 ft | 239 kts | 266° |
| 2026-05-06 18:03 | 50.99596 | 0.06420 | 6978 ft | 240 kts | 266° |
| 2026-05-06 18:04 | 50.99453 | 0.03793 | 6980 ft | 239 kts | 266° |
| 2026-05-06 18:04 | 50.99309 | 0.01156 | 6977 ft | 239 kts | 266° |
| 2026-05-06 18:04 | 50.99163 | -0.01480 | 6985 ft | 239 kts | 266° |
| 2026-05-06 18:04 | 50.98984 | -0.04103 | 6930 ft | 238 kts | 266° |
| 2026-05-06 18:05 | 50.98798 | -0.06711 | 6775 ft | 238 kts | 266° |
| 2026-05-06 18:05 | 50.98625 | -0.09321 | 6507 ft | 237 kts | 269° |
| 2026-05-06 18:05 | 50.98700 | -0.11903 | 6223 ft | 233 kts | 279° |
| 2026-05-06 18:05 | 50.98930 | -0.14444 | 5931 ft | 232 kts | 280° |
| 2026-05-06 18:06 | 50.99188 | -0.16975 | 5645 ft | 232 kts | 281° |
| 2026-05-06 18:06 | 50.99452 | -0.19503 | 5365 ft | 232 kts | 281° |
| 2026-05-06 18:06 | 50.99718 | -0.22033 | 5032 ft | 232 kts | 281° |
| 2026-05-06 18:06 | 50.99975 | -0.24559 | 4694 ft | 231 kts | 280° |
| 2026-05-06 18:07 | 51.00230 | -0.27079 | 4351 ft | 231 kts | 281° |
| 2026-05-06 18:07 | 51.00484 | -0.29592 | 4015 ft | 230 kts | 281° |
| 2026-05-06 18:07 | 51.00718 | -0.32105 | 3686 ft | 229 kts | 281° |
| 2026-05-06 18:07 | 51.00949 | -0.34609 | 3389 ft | 229 kts | 281° |
| 2026-05-06 18:08 | 51.01191 | -0.37107 | 3097 ft | 228 kts | 281° |
| 2026-05-06 18:08 | 51.01430 | -0.39599 | 3022 ft | 228 kts | 281° |
| 2026-05-06 18:08 | 51.01655 | -0.42064 | 2995 ft | 229 kts | 281° |
| 2026-05-06 18:08 | 51.01980 | -0.44529 | 2996 ft | 226 kts | 296° |
| 2026-05-06 18:09 | 51.02947 | -0.46413 | 3012 ft | 220 kts | 328° |
| 2026-05-06 18:09 | 51.04337 | -0.47388 | 2989 ft | 218 kts | 343° |
| 2026-05-06 18:09 | 51.05803 | -0.48064 | 2987 ft | 220 kts | 345° |
| 2026-05-06 18:09 | 51.07284 | -0.48703 | 2989 ft | 221 kts | 346° |
| 2026-05-06 18:10 | 51.08793 | -0.48920 | 2985 ft | 219 kts | 12° |
| 2026-05-06 18:10 | 51.10123 | -0.47819 | 2987 ft | 218 kts | 44° |
| 2026-05-06 18:10 | 51.11006 | -0.45847 | 2992 ft | 221 kts | 58° |
| 2026-05-06 18:10 | 51.11613 | -0.43584 | 2960 ft | 225 kts | 73° |
| 2026-05-06 18:11 | 51.11928 | -0.41128 | 2730 ft | 227 kts | 77° |
| 2026-05-06 18:11 | 51.12205 | -0.38666 | 2409 ft | 225 kts | 77° |
| 2026-05-06 18:11 | 51.12489 | -0.36286 | 2125 ft | 216 kts | 77° |
| 2026-05-06 18:11 | 51.12772 | -0.34035 | 1861 ft | 199 kts | 76° |
| 2026-05-06 18:12 | 51.13043 | -0.31958 | 1578 ft | 184 kts | 75° |
| 2026-05-06 18:12 | 51.13302 | -0.30036 | 1313 ft | 171 kts | 75° |
| 2026-05-06 18:12 | 51.13541 | -0.28263 | 1081 ft | 157 kts | 75° |
| 2026-05-06 18:12 | 51.13757 | -0.26675 | 951 ft | 137 kts | 74° |
| 2026-05-06 18:13 | 51.13953 | -0.25250 | 747 ft | 127 kts | 75° |
| 2026-05-06 18:13 | 51.14148 | -0.23865 | 607 ft | 130 kts | 74° |
| 2026-05-06 18:13 | 51.14344 | -0.22460 | 431 ft | 130 kts | 76° |
| 2026-05-06 18:13 | 51.14536 | -0.21052 | 288 ft | 130 kts | 75° |
| 2026-05-06 18:14 | 51.14726 | -0.19688 | 214 ft | 112 kts | 78° |
| 2026-05-06 18:14 | 51.14849 | -0.18790 | 209 ft | 39 kts | 78° |
| 2026-05-06 18:14 | 51.14978 | -0.18446 | 211 ft | 36 kts | 52° |
| 2026-05-06 18:14 | 51.15081 | -0.18249 | 215 ft | 15 kts | 40° |
| 2026-05-06 18:15 | 51.15122 | -0.18206 | 209 ft | 1 kts | 28° |
| 2026-05-06 18:15 | 51.15123 | -0.18205 | 209 ft | 0 kts | 28° |
| 2026-05-06 18:16 | 51.15124 | -0.18205 | 214 ft | 1 kts | 28° |
| 2026-05-06 18:16 | 51.15145 | -0.18196 | 213 ft | 5 kts | 6° |
| 2026-05-06 18:16 | 51.15165 | -0.18201 | 208 ft | 0 kts | 344° |
| 2026-05-06 18:18 | 51.15166 | -0.18201 | 208 ft | 0 kts | 344° |
| 2026-05-06 18:18 | 51.15222 | -0.18223 | 208 ft | 16 kts | 348° |
| 2026-05-06 18:19 | 51.15336 | -0.18261 | 214 ft | 17 kts | 348° |
| 2026-05-06 18:19 | 51.15435 | -0.18295 | 213 ft | 0 kts | 347° |
| 2026-05-06 18:20 | 51.15439 | -0.18279 | 210 ft | 5 kts | 81° |
| 2026-05-06 18:20 | 51.15448 | -0.18170 | 216 ft | 12 kts | 77° |
| 2026-05-06 18:20 | 51.15468 | -0.18035 | 211 ft | 13 kts | 79° |
| 2026-05-06 18:20 | 51.15486 | -0.17893 | 208 ft | 14 kts | 78° |
| 2026-05-06 18:21 | 51.15495 | -0.17824 | 210 ft | 0 kts | 77° |
| 2026-05-06 18:21 | 51.15496 | -0.17816 | 208 ft | 1 kts | 77° |
| 2026-05-06 18:21 | 51.15498 | -0.17804 | 208 ft | 2 kts | 77° |